sensor_id;sensor_type;location;lat;lon;timestamp;temperature;humidity
3919;DHT22;1974;48.670;8.994;2024-02-14T00:01:06;4.50;99.90
3919;DHT22;1974;48.670;8.994;2024-02-14T00:03:34;4.50;99.90
3919;DHT22;1974;48.670;8.994;2024-02-14T00:06:03;4.50;99.90
3919;DHT22;1974;48.670;8.994;2024-02-14T00:08:31;4.60;99.90
3919;DHT22;1974;48.670;8.994;2024-02-14T00:10:57;4.60;99.90
3919;DHT22;1974;48.670;8.994;2024-02-14T00:13:24;4.70;99.90
3919;DHT22;1974;48.670;8.994;2024-02-14T00:15:53;4.70;99.90
3919;DHT22;1974;48.670;8.994;2024-02-14T00:18:19;4.70;99.90
3919;DHT22;1974;48.670;8.994;2024-02-14T00:20:48;4.70;99.90
3919;DHT22;1974;48.670;8.994;2024-02-14T00:23:15;4.70;99.90
3919;DHT22;1974;48.670;8.994;2024-02-14T00:25:41;4.70;99.90
3919;DHT22;1974;48.670;8.994;2024-02-14T00:28:08;4.70;99.90
3919;DHT22;1974;48.670;8.994;2024-02-14T00:30:35;4.80;99.90
3919;DHT22;1974;48.670;8.994;2024-02-14T00:33:03;4.80;99.90
3919;DHT22;1974;48.670;8.994;2024-02-14T00:35:29;4.80;99.90
3919;DHT22;1974;48.670;8.994;2024-02-14T00:37:56;4.80;99.90
3919;DHT22;1974;48.670;8.994;2024-02-14T00:40:23;4.90;99.90
3919;DHT22;1974;48.670;8.994;2024-02-14T00:42:50;4.80;99.90
3919;DHT22;1974;48.670;8.994;2024-02-14T00:45:17;4.90;99.90
3919;DHT22;1974;48.670;8.994;2024-02-14T00:47:43;4.90;99.90
3919;DHT22;1974;48.670;8.994;2024-02-14T00:50:11;4.90;99.90
3919;DHT22;1974;48.670;8.994;2024-02-14T00:52:39;4.90;99.90
3919;DHT22;1974;48.670;8.994;2024-02-14T00:55:06;5.00;99.90
3919;DHT22;1974;48.670;8.994;2024-02-14T00:57:33;5.00;99.90
3919;DHT22;1974;48.670;8.994;2024-02-14T01:00:00;5.00;99.90
3919;DHT22;1974;48.670;8.994;2024-02-14T01:02:27;4.90;99.90
3919;DHT22;1974;48.670;8.994;2024-02-14T01:04:53;4.90;99.90
3919;DHT22;1974;48.670;8.994;2024-02-14T01:07:21;4.80;99.90
3919;DHT22;1974;48.670;8.994;2024-02-14T01:09:48;4.70;99.90
3919;DHT22;1974;48.670;8.994;2024-02-14T01:12:15;4.60;99.90
3919;DHT22;1974;48.670;8.994;2024-02-14T01:14:42;4.50;99.90
3919;DHT22;1974;48.670;8.994;2024-02-14T01:17:09;4.40;99.90
3919;DHT22;1974;48.670;8.994;2024-02-14T01:19:35;4.40;99.90
3919;DHT22;1974;48.670;8.994;2024-02-14T01:22:02;4.40;99.90
3919;DHT22;1974;48.670;8.994;2024-02-14T01:24:30;4.40;99.90
3919;DHT22;1974;48.670;8.994;2024-02-14T01:26:57;4.40;99.90
3919;DHT22;1974;48.670;8.994;2024-02-14T01:29:24;4.40;99.90
3919;DHT22;1974;48.670;8.994;2024-02-14T01:31:51;4.30;99.90
3919;DHT22;1974;48.670;8.994;2024-02-14T01:34:17;4.30;99.90
3919;DHT22;1974;48.670;8.994;2024-02-14T01:36:44;4.30;99.90
3919;DHT22;1974;48.670;8.994;2024-02-14T01:39:11;4.30;99.90
3919;DHT22;1974;48.670;8.994;2024-02-14T01:41:44;4.20;99.90
3919;DHT22;1974;48.670;8.994;2024-02-14T01:44:11;4.20;99.90
3919;DHT22;1974;48.670;8.994;2024-02-14T01:46:38;4.20;99.90
3919;DHT22;1974;48.670;8.994;2024-02-14T01:49:05;4.20;99.90
3919;DHT22;1974;48.670;8.994;2024-02-14T01:51:32;4.30;99.90
3919;DHT22;1974;48.670;8.994;2024-02-14T01:53:59;4.30;99.90
3919;DHT22;1974;48.670;8.994;2024-02-14T01:56:26;4.30;99.90
3919;DHT22;1974;48.670;8.994;2024-02-14T01:58:56;4.30;99.90
3919;DHT22;1974;48.670;8.994;2024-02-14T02:01:24;4.30;99.90
3919;DHT22;1974;48.670;8.994;2024-02-14T02:03:50;4.30;99.90
3919;DHT22;1974;48.670;8.994;2024-02-14T02:06:17;4.40;99.90
3919;DHT22;1974;48.670;8.994;2024-02-14T02:08:44;4.40;99.90
3919;DHT22;1974;48.670;8.994;2024-02-14T02:11:11;4.30;99.90
3919;DHT22;1974;48.670;8.994;2024-02-14T02:13:39;4.30;99.90
3919;DHT22;1974;48.670;8.994;2024-02-14T02:16:08;4.40;99.90
3919;DHT22;1974;48.670;8.994;2024-02-14T02:18:34;4.40;99.90
3919;DHT22;1974;48.670;8.994;2024-02-14T02:21:03;4.40;99.90
3919;DHT22;1974;48.670;8.994;2024-02-14T02:23:33;4.40;99.90
3919;DHT22;1974;48.670;8.994;2024-02-14T02:26:00;4.40;99.90
3919;DHT22;1974;48.670;8.994;2024-02-14T02:28:27;4.40;99.90
3919;DHT22;1974;48.670;8.994;2024-02-14T02:30:54;4.50;99.90
3919;DHT22;1974;48.670;8.994;2024-02-14T02:33:21;4.50;99.90
3919;DHT22;1974;48.670;8.994;2024-02-14T02:35:48;4.40;99.90
3919;DHT22;1974;48.670;8.994;2024-02-14T02:38:15;4.40;99.90
3919;DHT22;1974;48.670;8.994;2024-02-14T02:40:43;4.40;99.90
3919;DHT22;1974;48.670;8.994;2024-02-14T02:43:10;4.40;99.90
3919;DHT22;1974;48.670;8.994;2024-02-14T02:45:37;4.30;99.90
3919;DHT22;1974;48.670;8.994;2024-02-14T02:48:05;4.30;99.90
3919;DHT22;1974;48.670;8.994;2024-02-14T02:50:32;4.40;99.90
3919;DHT22;1974;48.670;8.994;2024-02-14T02:52:59;4.20;99.90
3919;DHT22;1974;48.670;8.994;2024-02-14T02:55:26;4.10;99.90
3919;DHT22;1974;48.670;8.994;2024-02-14T02:57:54;4.10;99.90
3919;DHT22;1974;48.670;8.994;2024-02-14T03:00:21;4.20;99.90
3919;DHT22;1974;48.670;8.994;2024-02-14T03:02:48;4.30;99.90
3919;DHT22;1974;48.670;8.994;2024-02-14T03:05:15;4.40;99.90
3919;DHT22;1974;48.670;8.994;2024-02-14T03:07:44;4.50;99.90
3919;DHT22;1974;48.670;8.994;2024-02-14T03:10:13;4.50;99.90
3919;DHT22;1974;48.670;8.994;2024-02-14T03:12:44;4.50;99.90
3919;DHT22;1974;48.670;8.994;2024-02-14T03:15:12;4.60;99.90
3919;DHT22;1974;48.670;8.994;2024-02-14T03:17:39;4.70;99.90
3919;DHT22;1974;48.670;8.994;2024-02-14T03:20:07;4.70;99.90
3919;DHT22;1974;48.670;8.994;2024-02-14T03:22:38;4.70;99.90
3919;DHT22;1974;48.670;8.994;2024-02-14T03:25:08;4.80;99.90
3919;DHT22;1974;48.670;8.994;2024-02-14T03:27:35;4.80;99.90
3919;DHT22;1974;48.670;8.994;2024-02-14T03:30:02;4.70;99.90
3919;DHT22;1974;48.670;8.994;2024-02-14T03:32:31;4.80;99.90
3919;DHT22;1974;48.670;8.994;2024-02-14T03:34:58;4.70;99.90
3919;DHT22;1974;48.670;8.994;2024-02-14T03:37:26;4.60;99.90
3919;DHT22;1974;48.670;8.994;2024-02-14T03:39:52;4.60;99.90
3919;DHT22;1974;48.670;8.994;2024-02-14T03:42:19;4.50;99.90
3919;DHT22;1974;48.670;8.994;2024-02-14T03:44:46;4.50;99.90
3919;DHT22;1974;48.670;8.994;2024-02-14T03:47:13;4.50;99.90
3919;DHT22;1974;48.670;8.994;2024-02-14T03:49:41;4.50;99.90
3919;DHT22;1974;48.670;8.994;2024-02-14T03:52:08;4.50;99.90
3919;DHT22;1974;48.670;8.994;2024-02-14T03:54:35;4.50;99.90
3919;DHT22;1974;48.670;8.994;2024-02-14T03:57:02;4.60;99.90
3919;DHT22;1974;48.670;8.994;2024-02-14T03:59:30;4.70;99.90
3919;DHT22;1974;48.670;8.994;2024-02-14T04:01:58;4.90;99.90
3919;DHT22;1974;48.670;8.994;2024-02-14T04:04:25;5.00;99.90
3919;DHT22;1974;48.670;8.994;2024-02-14T04:06:53;5.00;99.90
3919;DHT22;1974;48.670;8.994;2024-02-14T04:09:19;5.10;99.90
3919;DHT22;1974;48.670;8.994;2024-02-14T04:11:46;5.10;99.90
3919;DHT22;1974;48.670;8.994;2024-02-14T04:14:13;5.10;99.90
3919;DHT22;1974;48.670;8.994;2024-02-14T04:16:40;5.10;99.90
3919;DHT22;1974;48.670;8.994;2024-02-14T04:19:07;5.10;99.90
3919;DHT22;1974;48.670;8.994;2024-02-14T04:21:36;5.10;99.90
3919;DHT22;1974;48.670;8.994;2024-02-14T04:24:05;5.00;99.90
3919;DHT22;1974;48.670;8.994;2024-02-14T04:26:32;5.10;99.90
3919;DHT22;1974;48.670;8.994;2024-02-14T04:28:58;5.00;99.90
3919;DHT22;1974;48.670;8.994;2024-02-14T04:31:25;5.00;99.90
3919;DHT22;1974;48.670;8.994;2024-02-14T04:33:52;5.00;99.90
3919;DHT22;1974;48.670;8.994;2024-02-14T04:36:20;5.00;99.90
3919;DHT22;1974;48.670;8.994;2024-02-14T04:38:48;5.00;99.90
3919;DHT22;1974;48.670;8.994;2024-02-14T04:41:16;5.00;99.90
3919;DHT22;1974;48.670;8.994;2024-02-14T04:43:44;5.00;99.90
3919;DHT22;1974;48.670;8.994;2024-02-14T04:46:11;4.90;99.90
3919;DHT22;1974;48.670;8.994;2024-02-14T04:48:37;4.90;99.90
3919;DHT22;1974;48.670;8.994;2024-02-14T04:51:05;4.90;99.90
3919;DHT22;1974;48.670;8.994;2024-02-14T04:53:32;4.80;99.90
3919;DHT22;1974;48.670;8.994;2024-02-14T04:55:58;4.90;99.90
3919;DHT22;1974;48.670;8.994;2024-02-14T04:58:27;4.80;99.90
3919;DHT22;1974;48.670;8.994;2024-02-14T05:00:53;4.80;99.90
3919;DHT22;1974;48.670;8.994;2024-02-14T05:03:20;4.80;99.90
3919;DHT22;1974;48.670;8.994;2024-02-14T05:05:49;4.90;99.90
3919;DHT22;1974;48.670;8.994;2024-02-14T05:08:16;4.90;99.90
3919;DHT22;1974;48.670;8.994;2024-02-14T05:10:43;5.00;99.90
3919;DHT22;1974;48.670;8.994;2024-02-14T05:13:11;5.20;99.90
3919;DHT22;1974;48.670;8.994;2024-02-14T05:15:39;5.20;99.90
3919;DHT22;1974;48.670;8.994;2024-02-14T05:18:07;5.40;99.90
3919;DHT22;1974;48.670;8.994;2024-02-14T05:20:34;5.40;99.90
3919;DHT22;1974;48.670;8.994;2024-02-14T05:23:01;5.50;99.90
3919;DHT22;1974;48.670;8.994;2024-02-14T05:25:28;5.50;99.90
3919;DHT22;1974;48.670;8.994;2024-02-14T05:27:58;5.60;99.90
3919;DHT22;1974;48.670;8.994;2024-02-14T05:30:26;5.60;99.90
3919;DHT22;1974;48.670;8.994;2024-02-14T05:32:54;5.70;99.90
3919;DHT22;1974;48.670;8.994;2024-02-14T05:35:22;5.70;99.90
3919;DHT22;1974;48.670;8.994;2024-02-14T05:37:49;5.70;99.90
3919;DHT22;1974;48.670;8.994;2024-02-14T05:40:16;5.80;99.90
3919;DHT22;1974;48.670;8.994;2024-02-14T05:42:43;5.70;99.90
3919;DHT22;1974;48.670;8.994;2024-02-14T05:45:10;5.80;99.90
3919;DHT22;1974;48.670;8.994;2024-02-14T05:47:37;5.90;99.90
3919;DHT22;1974;48.670;8.994;2024-02-14T05:50:07;5.90;99.90
3919;DHT22;1974;48.670;8.994;2024-02-14T05:52:37;5.80;99.90
3919;DHT22;1974;48.670;8.994;2024-02-14T05:55:04;5.80;99.90
3919;DHT22;1974;48.670;8.994;2024-02-14T05:57:31;5.70;99.90
3919;DHT22;1974;48.670;8.994;2024-02-14T05:59:57;5.70;99.90
3919;DHT22;1974;48.670;8.994;2024-02-14T06:02:24;5.60;99.90
3919;DHT22;1974;48.670;8.994;2024-02-14T06:04:51;5.60;99.90
3919;DHT22;1974;48.670;8.994;2024-02-14T06:07:19;5.50;99.90
3919;DHT22;1974;48.670;8.994;2024-02-14T06:09:46;5.50;99.90
3919;DHT22;1974;48.670;8.994;2024-02-14T06:12:12;5.50;99.90
3919;DHT22;1974;48.670;8.994;2024-02-14T06:14:39;5.50;99.90
3919;DHT22;1974;48.670;8.994;2024-02-14T06:17:06;5.50;99.90
3919;DHT22;1974;48.670;8.994;2024-02-14T06:19:32;5.60;99.90
3919;DHT22;1974;48.670;8.994;2024-02-14T06:22:00;5.50;99.90
3919;DHT22;1974;48.670;8.994;2024-02-14T06:24:28;5.60;99.90
3919;DHT22;1974;48.670;8.994;2024-02-14T06:26:55;5.50;99.90
3919;DHT22;1974;48.670;8.994;2024-02-14T06:29:22;5.50;99.90
3919;DHT22;1974;48.670;8.994;2024-02-14T06:31:48;5.50;99.90
3919;DHT22;1974;48.670;8.994;2024-02-14T06:34:16;5.50;99.90
3919;DHT22;1974;48.670;8.994;2024-02-14T06:36:43;5.50;99.90
3919;DHT22;1974;48.670;8.994;2024-02-14T06:39:10;5.60;99.90
3919;DHT22;1974;48.670;8.994;2024-02-14T06:41:38;5.60;99.90
3919;DHT22;1974;48.670;8.994;2024-02-14T06:44:06;5.60;99.90
3919;DHT22;1974;48.670;8.994;2024-02-14T06:46:33;5.60;99.90
3919;DHT22;1974;48.670;8.994;2024-02-14T06:49:01;5.60;99.90
3919;DHT22;1974;48.670;8.994;2024-02-14T06:51:28;5.60;99.90
3919;DHT22;1974;48.670;8.994;2024-02-14T06:53:56;5.60;99.90
3919;DHT22;1974;48.670;8.994;2024-02-14T06:56:23;5.50;99.90
3919;DHT22;1974;48.670;8.994;2024-02-14T06:58:51;5.60;99.90
3919;DHT22;1974;48.670;8.994;2024-02-14T07:01:25;5.60;99.90
3919;DHT22;1974;48.670;8.994;2024-02-14T07:03:52;5.60;99.90
3919;DHT22;1974;48.670;8.994;2024-02-14T07:06:19;5.60;99.90
3919;DHT22;1974;48.670;8.994;2024-02-14T07:08:46;5.60;99.90
3919;DHT22;1974;48.670;8.994;2024-02-14T07:11:14;5.70;99.90
3919;DHT22;1974;48.670;8.994;2024-02-14T07:13:41;5.70;99.90
3919;DHT22;1974;48.670;8.994;2024-02-14T07:16:09;5.70;99.90
3919;DHT22;1974;48.670;8.994;2024-02-14T07:18:36;5.80;99.90
3919;DHT22;1974;48.670;8.994;2024-02-14T07:21:03;5.90;99.90
3919;DHT22;1974;48.670;8.994;2024-02-14T07:23:31;5.90;99.90
3919;DHT22;1974;48.670;8.994;2024-02-14T07:25:58;6.00;99.90
3919;DHT22;1974;48.670;8.994;2024-02-14T07:28:26;6.10;99.90
3919;DHT22;1974;48.670;8.994;2024-02-14T07:30:53;6.10;99.90
3919;DHT22;1974;48.670;8.994;2024-02-14T07:33:21;6.30;99.90
3919;DHT22;1974;48.670;8.994;2024-02-14T07:35:48;6.30;99.90
3919;DHT22;1974;48.670;8.994;2024-02-14T07:38:15;6.40;99.90
3919;DHT22;1974;48.670;8.994;2024-02-14T07:40:43;6.50;99.90
3919;DHT22;1974;48.670;8.994;2024-02-14T07:43:09;6.60;99.90
3919;DHT22;1974;48.670;8.994;2024-02-14T07:45:36;6.80;99.90
3919;DHT22;1974;48.670;8.994;2024-02-14T07:48:04;6.90;99.90
3919;DHT22;1974;48.670;8.994;2024-02-14T07:50:32;6.90;99.90
3919;DHT22;1974;48.670;8.994;2024-02-14T07:52:59;7.00;99.90
3919;DHT22;1974;48.670;8.994;2024-02-14T07:55:26;7.10;99.90
3919;DHT22;1974;48.670;8.994;2024-02-14T07:57:53;7.20;99.90
3919;DHT22;1974;48.670;8.994;2024-02-14T08:00:20;7.50;99.90
3919;DHT22;1974;48.670;8.994;2024-02-14T08:02:48;7.60;99.90
3919;DHT22;1974;48.670;8.994;2024-02-14T08:05:15;7.70;99.90
3919;DHT22;1974;48.670;8.994;2024-02-14T08:07:44;7.80;99.90
3919;DHT22;1974;48.670;8.994;2024-02-14T08:10:11;7.90;99.90
3919;DHT22;1974;48.670;8.994;2024-02-14T08:12:38;8.00;99.90
3919;DHT22;1974;48.670;8.994;2024-02-14T08:15:08;8.10;99.90
3919;DHT22;1974;48.670;8.994;2024-02-14T08:17:35;8.10;99.90
3919;DHT22;1974;48.670;8.994;2024-02-14T08:20:03;8.20;99.90
3919;DHT22;1974;48.670;8.994;2024-02-14T08:22:30;8.20;99.90
3919;DHT22;1974;48.670;8.994;2024-02-14T08:24:58;8.30;99.90
3919;DHT22;1974;48.670;8.994;2024-02-14T08:27:25;8.40;99.90
3919;DHT22;1974;48.670;8.994;2024-02-14T08:29:53;8.60;99.90
3919;DHT22;1974;48.670;8.994;2024-02-14T08:32:19;8.90;99.90
3919;DHT22;1974;48.670;8.994;2024-02-14T08:34:46;9.00;99.90
3919;DHT22;1974;48.670;8.994;2024-02-14T08:37:13;9.00;99.90
3919;DHT22;1974;48.670;8.994;2024-02-14T08:39:40;9.20;99.90
3919;DHT22;1974;48.670;8.994;2024-02-14T08:42:08;9.20;99.90
3919;DHT22;1974;48.670;8.994;2024-02-14T08:44:35;9.20;99.90
3919;DHT22;1974;48.670;8.994;2024-02-14T08:47:03;9.30;99.90
3919;DHT22;1974;48.670;8.994;2024-02-14T08:49:30;9.30;99.90
3919;DHT22;1974;48.670;8.994;2024-02-14T08:51:57;9.30;99.90
3919;DHT22;1974;48.670;8.994;2024-02-14T08:54:23;9.30;99.90
3919;DHT22;1974;48.670;8.994;2024-02-14T08:56:50;9.30;99.90
3919;DHT22;1974;48.670;8.994;2024-02-14T08:59:22;9.20;99.90
3919;DHT22;1974;48.670;8.994;2024-02-14T09:01:48;9.20;99.90
3919;DHT22;1974;48.670;8.994;2024-02-14T09:04:15;9.20;99.90
3919;DHT22;1974;48.670;8.994;2024-02-14T09:06:42;9.20;99.90
3919;DHT22;1974;48.670;8.994;2024-02-14T09:09:09;9.10;99.90
3919;DHT22;1974;48.670;8.994;2024-02-14T09:11:36;9.10;99.90
3919;DHT22;1974;48.670;8.994;2024-02-14T09:14:03;9.10;99.90
3919;DHT22;1974;48.670;8.994;2024-02-14T09:16:33;9.20;99.90
3919;DHT22;1974;48.670;8.994;2024-02-14T09:19:00;9.40;99.90
3919;DHT22;1974;48.670;8.994;2024-02-14T09:21:27;9.50;99.90
3919;DHT22;1974;48.670;8.994;2024-02-14T09:23:54;9.70;99.90
3919;DHT22;1974;48.670;8.994;2024-02-14T09:26:21;9.70;99.90
3919;DHT22;1974;48.670;8.994;2024-02-14T09:28:48;9.60;99.90
3919;DHT22;1974;48.670;8.994;2024-02-14T09:31:18;9.70;99.90
3919;DHT22;1974;48.670;8.994;2024-02-14T09:33:46;9.70;99.90
3919;DHT22;1974;48.670;8.994;2024-02-14T09:36:14;9.80;99.90
3919;DHT22;1974;48.670;8.994;2024-02-14T09:38:41;10.10;99.90
3919;DHT22;1974;48.670;8.994;2024-02-14T09:41:14;10.40;99.90
3919;DHT22;1974;48.670;8.994;2024-02-14T09:43:44;10.50;99.90
3919;DHT22;1974;48.670;8.994;2024-02-14T09:46:13;10.80;99.90
3919;DHT22;1974;48.670;8.994;2024-02-14T09:48:40;10.80;99.90
3919;DHT22;1974;48.670;8.994;2024-02-14T09:51:11;10.70;99.90
3919;DHT22;1974;48.670;8.994;2024-02-14T09:53:38;10.70;99.90
3919;DHT22;1974;48.670;8.994;2024-02-14T09:56:08;10.70;99.90
3919;DHT22;1974;48.670;8.994;2024-02-14T09:58:35;10.90;99.90
3919;DHT22;1974;48.670;8.994;2024-02-14T10:01:03;11.10;99.90
3919;DHT22;1974;48.670;8.994;2024-02-14T10:03:30;11.30;99.90
3919;DHT22;1974;48.670;8.994;2024-02-14T10:05:57;11.40;99.90
3919;DHT22;1974;48.670;8.994;2024-02-14T10:08:25;11.40;99.90
3919;DHT22;1974;48.670;8.994;2024-02-14T10:10:52;11.30;99.90
3919;DHT22;1974;48.670;8.994;2024-02-14T10:13:19;11.50;99.90
3919;DHT22;1974;48.670;8.994;2024-02-14T10:15:46;11.80;99.90
3919;DHT22;1974;48.670;8.994;2024-02-14T10:18:14;12.40;99.90
3919;DHT22;1974;48.670;8.994;2024-02-14T10:20:51;13.10;99.90
3919;DHT22;1974;48.670;8.994;2024-02-14T10:23:18;13.60;99.90
3919;DHT22;1974;48.670;8.994;2024-02-14T10:25:47;14.80;99.90
3919;DHT22;1974;48.670;8.994;2024-02-14T10:28:15;15.60;99.90
3919;DHT22;1974;48.670;8.994;2024-02-14T10:30:45;16.30;99.90
3919;DHT22;1974;48.670;8.994;2024-02-14T10:33:12;17.30;99.90
3919;DHT22;1974;48.670;8.994;2024-02-14T10:35:39;17.60;99.90
3919;DHT22;1974;48.670;8.994;2024-02-14T10:38:08;17.60;99.90
3919;DHT22;1974;48.670;8.994;2024-02-14T10:40:36;17.70;99.90
3919;DHT22;1974;48.670;8.994;2024-02-14T10:43:05;17.60;99.90
3919;DHT22;1974;48.670;8.994;2024-02-14T10:45:32;17.00;99.90
3919;DHT22;1974;48.670;8.994;2024-02-14T10:48:00;16.90;99.90
3919;DHT22;1974;48.670;8.994;2024-02-14T10:50:28;16.80;99.90
3919;DHT22;1974;48.670;8.994;2024-02-14T10:53:00;16.60;99.90
3919;DHT22;1974;48.670;8.994;2024-02-14T10:55:30;16.10;99.90
3919;DHT22;1974;48.670;8.994;2024-02-14T10:57:57;15.80;99.90
3919;DHT22;1974;48.670;8.994;2024-02-14T11:00:26;15.70;99.90
3919;DHT22;1974;48.670;8.994;2024-02-14T11:02:53;15.50;99.90
3919;DHT22;1974;48.670;8.994;2024-02-14T11:05:20;15.50;99.90
3919;DHT22;1974;48.670;8.994;2024-02-14T11:07:49;15.40;99.90
3919;DHT22;1974;48.670;8.994;2024-02-14T11:10:20;15.20;99.90
3919;DHT22;1974;48.670;8.994;2024-02-14T11:12:47;14.90;99.90
3919;DHT22;1974;48.670;8.994;2024-02-14T11:15:18;14.60;99.90
3919;DHT22;1974;48.670;8.994;2024-02-14T11:17:47;14.40;99.90
3919;DHT22;1974;48.670;8.994;2024-02-14T11:20:18;14.20;99.90
3919;DHT22;1974;48.670;8.994;2024-02-14T11:22:55;14.00;99.90
3919;DHT22;1974;48.670;8.994;2024-02-14T11:25:25;13.70;99.90
3919;DHT22;1974;48.670;8.994;2024-02-14T11:27:55;13.50;99.90
3919;DHT22;1974;48.670;8.994;2024-02-14T11:30:33;13.30;99.90
3919;DHT22;1974;48.670;8.994;2024-02-14T11:33:18;13.30;99.90
3919;DHT22;1974;48.670;8.994;2024-02-14T11:35:46;13.30;99.90
3919;DHT22;1974;48.670;8.994;2024-02-14T11:38:14;13.20;99.90
3919;DHT22;1974;48.670;8.994;2024-02-14T11:40:41;13.30;99.90
3919;DHT22;1974;48.670;8.994;2024-02-14T11:43:12;13.10;99.90
3919;DHT22;1974;48.670;8.994;2024-02-14T11:45:40;13.10;99.90
3919;DHT22;1974;48.670;8.994;2024-02-14T11:48:09;13.30;99.90
3919;DHT22;1974;48.670;8.994;2024-02-14T11:50:39;13.30;99.90
3919;DHT22;1974;48.670;8.994;2024-02-14T11:53:06;13.10;99.90
3919;DHT22;1974;48.670;8.994;2024-02-14T11:55:34;13.20;99.90
3919;DHT22;1974;48.670;8.994;2024-02-14T11:58:02;13.20;99.90
3919;DHT22;1974;48.670;8.994;2024-02-14T12:00:29;13.30;99.90
3919;DHT22;1974;48.670;8.994;2024-02-14T12:02:56;13.10;99.90
3919;DHT22;1974;48.670;8.994;2024-02-14T12:05:23;13.00;99.90
3919;DHT22;1974;48.670;8.994;2024-02-14T12:07:51;13.00;99.90
3919;DHT22;1974;48.670;8.994;2024-02-14T12:10:19;13.00;99.90
3919;DHT22;1974;48.670;8.994;2024-02-14T12:12:47;12.70;99.90
3919;DHT22;1974;48.670;8.994;2024-02-14T12:15:14;12.60;99.90
3919;DHT22;1974;48.670;8.994;2024-02-14T12:17:41;12.60;99.90
3919;DHT22;1974;48.670;8.994;2024-02-14T12:20:09;12.50;99.90
3919;DHT22;1974;48.670;8.994;2024-02-14T12:22:36;12.50;99.90
3919;DHT22;1974;48.670;8.994;2024-02-14T12:25:06;12.40;99.90
3919;DHT22;1974;48.670;8.994;2024-02-14T12:27:33;12.50;99.90
3919;DHT22;1974;48.670;8.994;2024-02-14T12:30:02;12.60;99.90
3919;DHT22;1974;48.670;8.994;2024-02-14T12:32:29;12.80;99.90
3919;DHT22;1974;48.670;8.994;2024-02-14T12:34:56;12.90;99.90
3919;DHT22;1974;48.670;8.994;2024-02-14T12:37:23;13.00;99.90
3919;DHT22;1974;48.670;8.994;2024-02-14T12:39:49;13.20;99.90
3919;DHT22;1974;48.670;8.994;2024-02-14T12:42:17;13.10;99.90
3919;DHT22;1974;48.670;8.994;2024-02-14T12:44:50;13.10;99.90
3919;DHT22;1974;48.670;8.994;2024-02-14T12:47:17;13.00;99.90
3919;DHT22;1974;48.670;8.994;2024-02-14T12:49:46;12.90;99.90
3919;DHT22;1974;48.670;8.994;2024-02-14T12:52:12;12.90;99.90
3919;DHT22;1974;48.670;8.994;2024-02-14T12:54:39;12.90;99.90
3919;DHT22;1974;48.670;8.994;2024-02-14T12:57:06;13.00;99.90
3919;DHT22;1974;48.670;8.994;2024-02-14T12:59:34;13.10;99.90
3919;DHT22;1974;48.670;8.994;2024-02-14T13:02:02;13.20;99.90
3919;DHT22;1974;48.670;8.994;2024-02-14T13:04:32;13.30;99.90
3919;DHT22;1974;48.670;8.994;2024-02-14T13:06:58;13.40;99.90
3919;DHT22;1974;48.670;8.994;2024-02-14T13:09:26;13.50;99.90
3919;DHT22;1974;48.670;8.994;2024-02-14T13:11:53;13.60;99.90
3919;DHT22;1974;48.670;8.994;2024-02-14T13:14:20;13.60;99.90
3919;DHT22;1974;48.670;8.994;2024-02-14T13:16:48;13.60;99.90
3919;DHT22;1974;48.670;8.994;2024-02-14T13:19:14;13.60;99.90
3919;DHT22;1974;48.670;8.994;2024-02-14T13:21:41;13.60;99.90
3919;DHT22;1974;48.670;8.994;2024-02-14T13:24:11;13.70;99.90
3919;DHT22;1974;48.670;8.994;2024-02-14T13:26:38;13.70;99.90
3919;DHT22;1974;48.670;8.994;2024-02-14T13:29:05;13.70;99.90
3919;DHT22;1974;48.670;8.994;2024-02-14T13:31:32;13.70;99.90
3919;DHT22;1974;48.670;8.994;2024-02-14T13:34:00;13.80;99.90
3919;DHT22;1974;48.670;8.994;2024-02-14T13:36:29;13.80;99.90
3919;DHT22;1974;48.670;8.994;2024-02-14T13:38:56;13.80;99.90
3919;DHT22;1974;48.670;8.994;2024-02-14T13:41:23;13.80;99.90
3919;DHT22;1974;48.670;8.994;2024-02-14T13:43:49;13.70;99.90
3919;DHT22;1974;48.670;8.994;2024-02-14T13:46:16;13.70;99.90
3919;DHT22;1974;48.670;8.994;2024-02-14T13:48:44;13.70;99.90
3919;DHT22;1974;48.670;8.994;2024-02-14T13:51:12;13.60;99.90
3919;DHT22;1974;48.670;8.994;2024-02-14T13:53:38;13.60;99.90
3919;DHT22;1974;48.670;8.994;2024-02-14T13:56:06;13.40;99.90
3919;DHT22;1974;48.670;8.994;2024-02-14T13:58:33;13.40;99.90
3919;DHT22;1974;48.670;8.994;2024-02-14T14:01:00;13.40;99.90
3919;DHT22;1974;48.670;8.994;2024-02-14T14:03:27;13.20;99.90
3919;DHT22;1974;48.670;8.994;2024-02-14T14:05:55;13.20;99.90
3919;DHT22;1974;48.670;8.994;2024-02-14T14:08:24;13.10;99.90
3919;DHT22;1974;48.670;8.994;2024-02-14T14:10:51;13.10;99.90
3919;DHT22;1974;48.670;8.994;2024-02-14T14:13:18;13.00;99.90
3919;DHT22;1974;48.670;8.994;2024-02-14T14:15:45;12.90;99.90
3919;DHT22;1974;48.670;8.994;2024-02-14T14:18:12;12.90;99.90
3919;DHT22;1974;48.670;8.994;2024-02-14T14:20:38;12.80;99.90
3919;DHT22;1974;48.670;8.994;2024-02-14T14:23:06;12.90;99.90
3919;DHT22;1974;48.670;8.994;2024-02-14T14:25:35;12.90;99.90
3919;DHT22;1974;48.670;8.994;2024-02-14T14:28:03;12.90;99.90
3919;DHT22;1974;48.670;8.994;2024-02-14T14:30:30;12.90;99.90
3919;DHT22;1974;48.670;8.994;2024-02-14T14:32:57;12.90;99.90
3919;DHT22;1974;48.670;8.994;2024-02-14T14:35:23;12.90;99.90
3919;DHT22;1974;48.670;8.994;2024-02-14T14:37:50;12.80;99.90
3919;DHT22;1974;48.670;8.994;2024-02-14T14:40:17;12.90;99.90
3919;DHT22;1974;48.670;8.994;2024-02-14T14:42:45;12.90;99.90
3919;DHT22;1974;48.670;8.994;2024-02-14T14:45:12;13.00;99.90
3919;DHT22;1974;48.670;8.994;2024-02-14T14:47:39;13.00;99.90
3919;DHT22;1974;48.670;8.994;2024-02-14T14:50:05;13.00;99.90
3919;DHT22;1974;48.670;8.994;2024-02-14T14:52:32;13.10;99.90
3919;DHT22;1974;48.670;8.994;2024-02-14T14:54:59;13.10;99.90
3919;DHT22;1974;48.670;8.994;2024-02-14T14:57:26;13.00;99.90
3919;DHT22;1974;48.670;8.994;2024-02-14T14:59:54;13.00;99.90
3919;DHT22;1974;48.670;8.994;2024-02-14T15:02:21;13.00;99.90
3919;DHT22;1974;48.670;8.994;2024-02-14T15:04:48;13.10;99.90
3919;DHT22;1974;48.670;8.994;2024-02-14T15:07:16;13.10;99.90
3919;DHT22;1974;48.670;8.994;2024-02-14T15:09:45;13.10;99.90
3919;DHT22;1974;48.670;8.994;2024-02-14T15:12:12;13.10;99.90
3919;DHT22;1974;48.670;8.994;2024-02-14T15:14:39;13.10;99.90
3919;DHT22;1974;48.670;8.994;2024-02-14T15:17:07;13.10;99.90
3919;DHT22;1974;48.670;8.994;2024-02-14T15:19:33;13.20;99.90
3919;DHT22;1974;48.670;8.994;2024-02-14T15:22:00;13.20;99.90
3919;DHT22;1974;48.670;8.994;2024-02-14T15:24:28;13.20;99.90
3919;DHT22;1974;48.670;8.994;2024-02-14T15:26:55;13.20;99.90
3919;DHT22;1974;48.670;8.994;2024-02-14T15:29:26;13.10;99.90
3919;DHT22;1974;48.670;8.994;2024-02-14T15:32:11;13.10;99.90
3919;DHT22;1974;48.670;8.994;2024-02-14T15:34:55;13.00;99.90
3919;DHT22;1974;48.670;8.994;2024-02-14T15:37:22;12.90;99.90
3919;DHT22;1974;48.670;8.994;2024-02-14T15:39:49;12.70;99.90
3919;DHT22;1974;48.670;8.994;2024-02-14T15:42:17;12.70;99.90
3919;DHT22;1974;48.670;8.994;2024-02-14T15:44:44;12.60;99.90
3919;DHT22;1974;48.670;8.994;2024-02-14T15:47:12;12.60;99.90
3919;DHT22;1974;48.670;8.994;2024-02-14T15:49:39;12.60;99.90
3919;DHT22;1974;48.670;8.994;2024-02-14T15:52:06;12.60;99.90
3919;DHT22;1974;48.670;8.994;2024-02-14T15:54:34;12.50;99.90
3919;DHT22;1974;48.670;8.994;2024-02-14T15:57:02;12.50;99.90
3919;DHT22;1974;48.670;8.994;2024-02-14T15:59:29;12.40;99.90
3919;DHT22;1974;48.670;8.994;2024-02-14T16:01:55;12.40;99.90
3919;DHT22;1974;48.670;8.994;2024-02-14T16:04:23;12.40;99.90
3919;DHT22;1974;48.670;8.994;2024-02-14T16:06:50;12.40;99.90
3919;DHT22;1974;48.670;8.994;2024-02-14T16:09:17;12.40;99.90
3919;DHT22;1974;48.670;8.994;2024-02-14T16:11:44;12.30;99.90
3919;DHT22;1974;48.670;8.994;2024-02-14T16:14:11;12.30;99.90